Metar z pełnej godziny Komunikat METAR ze strony awiacja.imgw.pl Metar G00 EPLL METAR EPLL 211700Z 10006KT CAVOK 29/13 Q1012 =